createdAt,value
2018-06-27T00:00:07.213Z,15.46
2018-06-27T00:01:07.200Z,15.49
2018-06-27T00:02:21.698Z,15.44
2018-06-27T00:03:07.700Z,15.43
2018-06-27T00:04:07.703Z,15.46
2018-06-27T00:05:08.698Z,15.46
2018-06-27T00:06:08.207Z,15.38
2018-06-27T00:08:39.566Z,15.35
2018-06-27T00:09:38.928Z,15.28
2018-06-27T00:10:39.596Z,15.31
2018-06-27T00:13:32.322Z,15.25
2018-06-27T00:14:32.330Z,15.12
2018-06-27T00:15:33.258Z,15.13
2018-06-27T00:17:43.070Z,15.11
2018-06-27T00:18:42.413Z,15.01
2018-06-27T00:19:43.085Z,15.00
2018-06-27T00:21:04.079Z,14.97
2018-06-27T00:23:14.092Z,14.86
2018-06-27T00:24:14.841Z,14.91
2018-06-27T00:25:14.314Z,14.86
2018-06-27T00:27:46.572Z,14.87
2018-06-27T00:28:46.617Z,14.86
2018-06-27T00:29:46.580Z,14.91
2018-06-27T00:30:46.579Z,14.83
2018-06-27T00:31:47.079Z,14.79
2018-06-27T00:32:47.079Z,14.75
2018-06-27T00:33:47.116Z,14.78
2018-06-27T00:34:47.080Z,14.80
2018-06-27T00:36:08.582Z,14.83
2018-06-27T00:36:46.811Z,14.82
2018-06-27T00:37:48.512Z,14.75
2018-06-27T00:38:47.044Z,14.69
2018-06-27T00:40:09.075Z,14.82
2018-06-27T00:40:48.093Z,14.71
2018-06-27T00:41:47.421Z,14.78
2018-06-27T00:42:48.080Z,14.79
2018-06-27T00:43:48.579Z,14.74
2018-06-27T00:44:48.587Z,14.82
2018-06-27T00:45:48.579Z,14.86
2018-06-27T00:46:49.577Z,14.90
2018-06-27T00:47:49.079Z,14.91
2018-06-27T00:49:10.080Z,14.90
2018-06-27T00:49:49.079Z,14.85
2018-06-27T00:50:49.076Z,14.91
2018-06-27T00:51:49.579Z,14.91
2018-06-27T00:53:09.776Z,14.83
2018-06-27T00:55:21.036Z,14.87
2018-06-27T00:56:42.051Z,14.82
2018-06-27T00:57:21.043Z,14.74
2018-06-27T01:00:13.042Z,14.80
2018-06-27T01:00:52.142Z,14.82
2018-06-27T01:01:59.736Z,14.80
2018-06-27T01:02:53.303Z,14.78
2018-06-27T01:03:53.303Z,14.78
2018-06-27T01:04:53.303Z,14.78
2018-06-27T01:05:53.303Z,14.69
2018-06-27T01:06:52.901Z,14.75
2018-06-27T01:07:53.801Z,14.69
2018-06-27T01:08:55.280Z,14.64
2018-06-27T01:09:53.269Z,14.54
2018-06-27T01:10:53.390Z,14.53
2018-06-27T01:12:10.735Z,14.45
2018-06-27T01:12:54.320Z,14.31
2018-06-27T01:13:53.774Z,14.41
2018-06-27T01:15:08.802Z,14.41
2018-06-27T01:16:15.804Z,14.31
2018-06-27T01:16:54.804Z,14.34
2018-06-27T01:17:54.286Z,14.35
2018-06-27T01:18:55.303Z,14.35
2018-06-27T01:19:56.251Z,14.48
2018-06-27T01:20:55.302Z,14.39
2018-06-27T01:21:55.301Z,14.42
2018-06-27T01:22:54.899Z,14.35
2018-06-27T01:24:16.803Z,14.41
2018-06-27T01:24:55.803Z,14.46
2018-06-27T01:25:55.331Z,14.44
2018-06-27T01:26:57.803Z,14.48
2018-06-27T01:27:56.300Z,14.41
2018-06-27T01:28:56.311Z,14.34
2018-06-27T01:29:57.301Z,14.36
2018-06-27T01:30:58.802Z,14.39
2018-06-27T01:31:56.807Z,14.36
2018-06-27T01:33:17.807Z,14.36
2018-06-27T01:33:56.276Z,14.35
2018-06-27T01:34:56.379Z,14.27
2018-06-27T01:35:57.302Z,14.34
2018-06-27T01:36:57.304Z,14.35
2018-06-27T01:37:57.298Z,14.35
2018-06-27T01:38:57.300Z,14.34
2018-06-27T01:41:29.046Z,14.31
2018-06-27T01:42:29.052Z,14.26
2018-06-27T01:43:29.552Z,14.20
2018-06-27T01:44:29.559Z,14.17
2018-06-27T01:45:29.555Z,14.20
2018-06-27T01:46:32.485Z,14.08
2018-06-27T01:47:29.552Z,14.09
2018-06-27T01:48:30.056Z,14.06
2018-06-27T01:49:30.054Z,14.09
2018-06-27T01:50:30.055Z,14.02
2018-06-27T01:51:30.051Z,14.09
2018-06-27T01:52:30.552Z,14.04
2018-06-27T01:53:30.549Z,14.06
2018-06-27T01:54:30.558Z,14.09
2018-06-27T01:55:30.564Z,14.05
2018-06-27T01:56:52.985Z,14.09
2018-06-27T01:57:45.048Z,13.99
2018-06-27T01:58:45.126Z,14.02
2018-06-27T01:59:31.052Z,14.02
2018-06-27T02:00:31.558Z,13.96
2018-06-27T02:01:37.552Z,14.01
2018-06-27T02:02:31.552Z,14.02
2018-06-27T02:03:31.552Z,14.01
2018-06-27T02:04:32.057Z,14.01
2018-06-27T02:05:38.052Z,14.01
2018-06-27T02:06:32.053Z,13.93
2018-06-27T02:07:32.052Z,14.04
2018-06-27T02:08:33.552Z,13.96
2018-06-27T02:09:32.551Z,13.91
2018-06-27T02:10:53.554Z,13.99
2018-06-27T02:11:33.054Z,13.94
2018-06-27T02:12:36.523Z,13.93
2018-06-27T02:13:33.053Z,13.91
2018-06-27T02:14:33.076Z,13.80
2018-06-27T02:15:33.055Z,13.98
2018-06-27T02:16:33.552Z,13.98
2018-06-27T02:17:33.551Z,13.91
2018-06-27T02:18:33.552Z,13.88
2018-06-27T02:19:33.551Z,13.80
2018-06-27T02:20:35.513Z,13.79
2018-06-27T02:21:34.057Z,13.75
2018-06-27T02:22:34.052Z,13.75
2018-06-27T02:23:34.051Z,13.73
2018-06-27T02:26:05.802Z,13.71
2018-06-27T02:27:07.741Z,13.80
2018-06-27T02:28:06.771Z,13.73
2018-06-27T02:29:08.307Z,13.71
2018-06-27T02:30:06.309Z,13.73
2018-06-27T02:31:06.309Z,13.76
2018-06-27T02:32:06.308Z,13.75
2018-06-27T02:33:26.888Z,13.66
2018-06-27T02:34:06.810Z,13.62
2018-06-27T02:35:06.814Z,13.50
2018-06-27T02:36:06.809Z,13.63
2018-06-27T02:37:06.808Z,13.54
2018-06-27T02:38:07.312Z,13.50
2018-06-27T02:40:40.716Z,13.61
2018-06-27T02:41:38.069Z,13.59
2018-06-27T02:42:38.723Z,13.59
2018-06-27T02:43:39.230Z,13.54
2018-06-27T02:44:39.249Z,13.51
2018-06-27T02:45:39.221Z,13.62
2018-06-27T02:46:39.222Z,13.57
2018-06-27T02:48:01.677Z,13.61
2018-06-27T02:50:34.043Z,13.50
2018-06-27T02:51:10.396Z,13.48
2018-06-27T02:52:11.057Z,13.43
2018-06-27T02:53:13.552Z,13.48
2018-06-27T02:54:11.549Z,13.46
2018-06-27T02:55:11.555Z,13.39
2018-06-27T02:56:13.524Z,13.32
2018-06-27T02:57:13.484Z,13.35
2018-06-27T02:58:14.051Z,13.24
2018-06-27T02:59:12.049Z,13.27
2018-06-27T03:00:12.053Z,13.14
2018-06-27T03:01:12.052Z,13.16
2018-06-27T03:02:14.549Z,13.10
2018-06-27T03:03:39.548Z,13.12
2018-06-27T03:04:33.551Z,13.12
2018-06-27T03:05:12.549Z,13.12
2018-06-27T03:06:34.049Z,13.04
2018-06-27T03:07:34.050Z,13.16
2018-06-27T03:08:13.059Z,13.17
2018-06-27T03:09:34.059Z,13.21
2018-06-27T03:10:27.552Z,13.16
2018-06-27T03:11:33.747Z,13.24
2018-06-27T03:12:13.550Z,13.07
2018-06-27T03:13:13.556Z,13.07
2018-06-27T03:14:13.546Z,13.07
2018-06-27T03:15:14.049Z,13.10
2018-06-27T03:16:14.051Z,13.17
2018-06-27T03:17:14.048Z,13.12
2018-06-27T03:18:13.549Z,13.04
2018-06-27T03:19:14.552Z,13.01
2018-06-27T03:20:14.567Z,13.04
2018-06-27T03:21:14.548Z,13.01
2018-06-27T03:22:14.549Z,13.03
2018-06-27T03:23:14.145Z,12.95
2018-06-27T03:24:36.049Z,12.98
2018-06-27T03:25:14.406Z,12.99
2018-06-27T03:26:21.048Z,12.95
2018-06-27T03:27:22.550Z,13.06
2018-06-27T03:29:46.910Z,13.10
2018-06-27T03:30:46.918Z,13.04
2018-06-27T03:31:46.915Z,13.12
2018-06-27T03:32:47.414Z,13.07
2018-06-27T03:33:48.877Z,13.21
2018-06-27T03:34:47.419Z,13.21
2018-06-27T03:35:47.416Z,13.14
2018-06-27T03:36:47.012Z,13.13
2018-06-27T03:37:48.921Z,13.19
2018-06-27T03:38:47.921Z,13.31
2018-06-27T03:39:47.915Z,13.14
2018-06-27T03:41:09.414Z,13.21
2018-06-27T03:41:48.418Z,13.21
2018-06-27T03:42:48.421Z,13.21
2018-06-27T03:43:48.415Z,13.27
2018-06-27T03:44:50.912Z,13.21
2018-06-27T03:45:51.846Z,13.22
2018-06-27T03:47:09.924Z,13.28
2018-06-27T03:47:50.848Z,13.28
2018-06-27T03:49:12.412Z,13.32
2018-06-27T03:50:09.503Z,13.35
2018-06-27T03:51:10.414Z,13.32
2018-06-27T03:51:49.414Z,13.36
2018-06-27T03:52:49.419Z,13.35
2018-06-27T03:53:49.422Z,13.31
2018-06-27T03:55:03.916Z,13.32
2018-06-27T03:56:10.917Z,13.32
2018-06-27T03:56:49.915Z,13.35
2018-06-27T03:57:49.914Z,13.36
2018-06-27T04:00:21.661Z,13.54
2018-06-27T04:02:55.115Z,13.48
2018-06-27T04:03:54.113Z,13.44
2018-06-27T04:04:53.661Z,13.61
2018-06-27T04:06:14.661Z,13.61
2018-06-27T04:07:14.661Z,13.62
2018-06-27T04:08:15.617Z,13.66
2018-06-27T04:08:53.094Z,13.66
2018-06-27T04:10:14.167Z,13.71
2018-06-27T04:10:53.269Z,13.81
2018-06-27T04:11:56.593Z,13.75
2018-06-27T04:13:18.718Z,13.73
2018-06-27T04:13:54.161Z,13.75
2018-06-27T04:14:54.161Z,13.79
2018-06-27T04:16:15.661Z,13.75
2018-06-27T04:18:26.031Z,13.75
2018-06-27T04:19:25.391Z,13.86
2018-06-27T04:20:26.039Z,13.79
2018-06-27T04:21:26.536Z,13.80
2018-06-27T04:22:47.537Z,13.83
2018-06-27T04:23:28.007Z,13.84
2018-06-27T04:24:47.537Z,13.86
2018-06-27T04:25:49.511Z,13.93
2018-06-27T04:26:47.215Z,14.01
2018-06-27T04:27:49.503Z,14.02
2018-06-27T04:28:27.043Z,14.02
2018-06-27T04:29:48.969Z,13.99
2018-06-27T04:30:37.970Z,14.02
2018-06-27T04:36:01.824Z,14.12
2018-06-27T04:37:24.206Z,14.17
2018-06-27T04:38:01.772Z,14.16
2018-06-27T04:39:08.300Z,14.16
2018-06-27T04:40:02.271Z,14.21
2018-06-27T04:41:23.278Z,14.24
2018-06-27T04:42:02.272Z,14.23
2018-06-27T04:43:16.836Z,14.27
2018-06-27T04:44:02.772Z,14.31
2018-06-27T04:45:23.771Z,14.30
2018-06-27T04:46:02.771Z,14.38
2018-06-27T04:48:35.952Z,14.46
2018-06-27T04:49:33.863Z,14.42
2018-06-27T04:50:54.956Z,14.42
2018-06-27T04:53:08.643Z,14.56
2018-06-27T04:54:06.206Z,14.57
2018-06-27T04:55:27.206Z,14.56
2018-06-27T04:57:37.971Z,14.69
2018-06-27T04:58:37.980Z,14.72
2018-06-27T04:59:37.978Z,14.74
2018-06-27T05:00:40.911Z,14.80
2018-06-27T05:01:38.526Z,14.79
2018-06-27T05:02:37.831Z,14.83
2018-06-27T05:05:32.524Z,14.83
2018-06-27T05:06:11.523Z,15.00
2018-06-27T05:07:10.091Z,14.94
2018-06-27T05:08:10.627Z,15.00
2018-06-27T05:09:10.594Z,15.12
2018-06-27T05:10:10.592Z,15.18
2018-06-27T05:11:10.591Z,15.23
2018-06-27T05:13:42.349Z,15.40
2018-06-27T05:14:42.361Z,15.40
2018-06-27T05:15:42.367Z,15.56
2018-06-27T05:18:15.536Z,15.66
2018-06-27T05:19:14.104Z,15.55
2018-06-27T05:20:14.104Z,15.64
2018-06-27T05:21:16.059Z,15.66
2018-06-27T05:23:59.933Z,15.80
2018-06-27T05:24:45.273Z,15.71
2018-06-27T05:25:45.934Z,15.77
2018-06-27T05:27:07.433Z,15.73
2018-06-27T05:28:07.440Z,15.81
2018-06-27T05:28:46.435Z,15.84
2018-06-27T05:29:46.435Z,15.81
2018-06-27T05:30:46.941Z,15.85
2018-06-27T05:31:46.167Z,15.85
2018-06-27T05:32:46.935Z,15.92
2018-06-27T05:33:46.934Z,15.93
2018-06-27T05:34:47.435Z,15.93
2018-06-27T05:35:47.435Z,15.98
2018-06-27T05:36:46.782Z,15.98
2018-06-27T05:37:47.438Z,16.04
2018-06-27T05:39:08.009Z,16.08
2018-06-27T05:40:08.934Z,16.17
2018-06-27T05:40:47.158Z,16.29
2018-06-27T05:41:47.261Z,16.25
2018-06-27T05:42:47.937Z,16.32
2018-06-27T05:43:47.960Z,16.34
2018-06-27T05:46:40.712Z,16.51
2018-06-27T05:48:51.713Z,16.60
2018-06-27T05:49:51.720Z,16.69
2018-06-27T05:50:51.722Z,16.65
2018-06-27T05:51:52.215Z,16.80
2018-06-27T05:54:46.024Z,16.88
2018-06-27T05:55:23.592Z,16.91
2018-06-27T05:56:44.592Z,17.00
2018-06-27T05:57:30.094Z,16.98
2018-06-27T05:58:45.106Z,17.00
2018-06-27T05:59:38.142Z,17.06
2018-06-27T06:00:23.602Z,17.12
2018-06-27T06:01:23.700Z,17.12
2018-06-27T06:02:24.590Z,17.09
2018-06-27T06:03:24.591Z,17.21
2018-06-27T06:04:24.615Z,17.27
2018-06-27T06:06:56.354Z,17.32
2018-06-27T06:07:56.363Z,17.46
2018-06-27T06:08:56.347Z,17.55
2018-06-27T06:11:28.177Z,17.66
2018-06-27T06:12:29.111Z,17.65
2018-06-27T06:13:28.116Z,17.80
2018-06-27T06:14:34.623Z,17.76
2018-06-27T06:17:22.443Z,17.84
2018-06-27T06:18:00.020Z,17.99
2018-06-27T06:19:00.025Z,18.16
2018-06-27T06:20:00.512Z,18.04
2018-06-27T06:21:21.514Z,18.20
2018-06-27T06:22:00.515Z,18.25
2018-06-27T06:23:00.516Z,18.28
2018-06-27T06:24:24.016Z,18.36
2018-06-27T06:25:01.012Z,18.41
2018-06-27T06:26:01.012Z,18.44
2018-06-27T06:28:22.509Z,18.39
2018-06-27T06:30:53.922Z,18.57
2018-06-27T06:31:33.937Z,18.54
2018-06-27T06:32:32.971Z,18.65
2018-06-27T06:33:36.865Z,18.66
2018-06-27T06:34:54.429Z,18.68
2018-06-27T06:35:47.429Z,18.64
2018-06-27T06:38:00.940Z,18.64
2018-06-27T06:41:44.195Z,18.89
2018-06-27T06:42:36.763Z,19.01
2018-06-27T06:43:36.762Z,19.02
2018-06-27T06:44:37.267Z,18.96
2018-06-27T06:45:37.264Z,19.02
2018-06-27T06:46:37.263Z,19.09
2018-06-27T06:48:00.195Z,19.07
2018-06-27T06:48:58.764Z,19.16
2018-06-27T06:49:58.771Z,19.25
2018-06-27T06:50:37.764Z,19.23
2018-06-27T06:51:37.763Z,19.34
2018-06-27T06:52:38.257Z,19.34
2018-06-27T06:53:38.264Z,19.32
2018-06-27T06:54:38.263Z,19.30
2018-06-27T06:55:38.266Z,19.43
2018-06-27T06:56:52.763Z,19.52
2018-06-27T06:59:30.439Z,19.47
2018-06-27T07:00:09.539Z,19.45
2018-06-27T07:01:10.119Z,19.57
2018-06-27T07:02:10.655Z,19.53
2018-06-27T07:03:09.902Z,19.75
2018-06-27T07:04:10.655Z,19.79
2018-06-27T07:05:10.656Z,19.86
2018-06-27T07:07:48.413Z,20.08
2018-06-27T07:10:27.913Z,20.12
2018-06-27T07:14:18.342Z,20.25
2018-06-27T07:15:38.376Z,20.31
2018-06-27T07:16:16.856Z,20.23
2018-06-27T07:17:17.874Z,20.26
2018-06-27T07:19:57.240Z,20.42
2018-06-27T07:20:49.784Z,20.53
2018-06-27T07:21:50.283Z,20.50
2018-06-27T07:22:50.288Z,20.54
2018-06-27T07:23:52.290Z,20.63
2018-06-27T07:24:50.285Z,20.54
2018-06-27T07:27:43.043Z,20.57
2018-06-27T07:28:22.064Z,20.69
2018-06-27T07:29:22.548Z,20.66
2018-06-27T07:30:21.652Z,20.87
2018-06-27T07:31:43.550Z,20.78
2018-06-27T07:34:15.063Z,21.05
2018-06-27T07:34:54.096Z,21.06
2018-06-27T07:36:15.080Z,21.26
2018-06-27T07:37:08.568Z,21.31
2018-06-27T07:37:54.570Z,21.30
2018-06-27T07:38:54.570Z,21.42
2018-06-27T07:39:54.571Z,21.43
2018-06-27T07:41:17.513Z,21.48
2018-06-27T07:41:56.507Z,21.52
2018-06-27T07:44:26.471Z,21.55
2018-06-27T07:46:59.451Z,21.13
2018-06-27T07:47:57.983Z,20.96
2018-06-27T07:48:58.002Z,20.73
2018-06-27T07:50:25.486Z,20.82
2018-06-27T07:51:19.484Z,20.76
2018-06-27T07:51:57.847Z,20.85
2018-06-27T07:52:58.484Z,20.96
2018-06-27T07:53:58.124Z,21.11
2018-06-27T07:54:58.984Z,21.31
2018-06-27T07:55:58.341Z,21.43
2018-06-27T07:56:58.985Z,21.48
2018-06-27T07:57:59.918Z,21.55
2018-06-27T07:59:22.487Z,21.48
2018-06-27T08:00:04.486Z,21.53
2018-06-27T08:01:13.496Z,21.67
2018-06-27T08:01:59.498Z,21.79
2018-06-27T08:02:59.998Z,21.90
2018-06-27T08:03:59.220Z,22.08
2018-06-27T08:04:59.985Z,22.20
2018-06-27T08:06:00.098Z,21.98
2018-06-27T08:07:21.487Z,21.66
2018-06-27T08:07:59.734Z,21.46
2018-06-27T08:09:00.486Z,21.49
2018-06-27T08:10:00.492Z,21.58
2018-06-27T08:11:21.075Z,21.86
2018-06-27T08:13:32.347Z,22.11
2018-06-27T08:14:59.332Z,21.96
2018-06-27T08:15:32.334Z,21.98
2018-06-27T08:16:31.937Z,22.05
2018-06-27T08:17:53.161Z,22.15
2018-06-27T08:18:32.835Z,22.31
2018-06-27T08:19:32.858Z,22.38
2018-06-27T08:20:32.837Z,22.42
2018-06-27T08:21:47.332Z,22.49
2018-06-27T08:24:10.658Z,22.97
2018-06-27T08:28:07.679Z,23.19
2018-06-27T08:29:30.620Z,23.38
2018-06-27T08:30:07.166Z,23.50
2018-06-27T08:32:39.434Z,23.67
2018-06-27T08:33:38.788Z,23.49
2018-06-27T08:34:39.435Z,23.39
2018-06-27T08:35:42.391Z,23.60
2018-06-27T08:38:11.270Z,23.63
2018-06-27T08:39:11.277Z,23.63
2018-06-27T08:40:10.782Z,23.62
2018-06-27T08:41:25.776Z,23.57
2018-06-27T08:42:11.780Z,23.59
2018-06-27T08:43:13.778Z,23.39
2018-06-27T08:45:43.212Z,23.37
2018-06-27T08:46:43.314Z,23.41
2018-06-27T08:47:43.926Z,23.50
2018-06-27T08:48:44.428Z,23.45
2018-06-27T08:52:47.768Z,23.15
2018-06-27T08:54:10.246Z,23.34
2018-06-27T08:54:47.787Z,23.37
2018-06-27T08:55:48.708Z,23.29
2018-06-27T08:56:48.275Z,23.16
2018-06-27T08:58:09.275Z,23.06
2018-06-27T08:59:09.275Z,23.06
2018-06-27T08:59:48.276Z,23.06
2018-06-27T09:00:48.775Z,23.12
2018-06-27T09:01:48.774Z,23.04
2018-06-27T09:04:47.300Z,22.84
2018-06-27T09:06:53.806Z,23.07
2018-06-27T09:09:23.340Z,23.42
2018-06-27T09:11:54.841Z,23.41
2018-06-27T09:12:54.848Z,23.42
2018-06-27T09:13:54.848Z,23.49
2018-06-27T09:14:55.347Z,23.49
2018-06-27T09:17:26.744Z,23.50
2018-06-27T09:18:26.745Z,23.54
2018-06-27T09:19:26.745Z,23.56
2018-06-27T09:21:58.502Z,23.72
2018-06-27T09:22:58.506Z,23.77
2018-06-27T09:23:59.438Z,23.71
2018-06-27T09:25:01.006Z,23.86
2018-06-27T09:26:00.481Z,23.78
2018-06-27T09:26:59.011Z,23.56
2018-06-27T09:28:13.007Z,23.44
2018-06-27T09:35:48.494Z,23.49
2018-06-27T09:36:48.091Z,23.39
2018-06-27T09:37:41.993Z,23.38
2018-06-27T09:38:27.353Z,23.32
2018-06-27T09:39:48.997Z,23.38
2018-06-27T09:40:49.498Z,23.49
2018-06-27T09:41:30.507Z,23.63
2018-06-27T09:42:28.503Z,23.77
2018-06-27T09:43:28.497Z,23.89
2018-06-27T09:44:30.998Z,24.11
2018-06-27T09:45:49.999Z,24.16
2018-06-27T09:46:28.359Z,24.29
2018-06-27T09:47:30.996Z,24.27
2018-06-27T09:48:52.499Z,24.14
2018-06-27T09:49:52.499Z,23.82
2018-06-27T09:50:29.617Z,23.68
2018-06-27T09:51:50.064Z,23.50
2018-06-27T09:52:32.002Z,23.68
2018-06-27T09:53:52.460Z,23.90
2018-06-27T09:54:52.453Z,24.02
2018-06-27T09:55:44.001Z,24.09
2018-06-27T09:56:32.433Z,24.21
2018-06-27T09:59:01.101Z,24.14
2018-06-27T10:00:08.276Z,24.24
2018-06-27T10:01:01.267Z,24.16
2018-06-27T10:02:16.308Z,24.09
2018-06-27T10:03:02.308Z,24.05
2018-06-27T10:04:25.748Z,24.16
2018-06-27T10:05:02.318Z,24.02
2018-06-27T10:06:02.307Z,24.08
2018-06-27T10:07:27.265Z,23.72
2018-06-27T10:08:23.002Z,23.89
2018-06-27T10:09:23.807Z,24.00
2018-06-27T10:10:08.811Z,24.18
2018-06-27T10:11:23.813Z,24.33
2018-06-27T10:12:17.316Z,24.48
2018-06-27T10:13:03.308Z,24.53
2018-06-27T10:14:24.309Z,24.37
2018-06-27T10:16:40.941Z,24.34
2018-06-27T10:19:06.443Z,24.44
2018-06-27T10:20:08.445Z,24.67
2018-06-27T10:21:18.877Z,24.63
2018-06-27T10:23:44.214Z,24.56
2018-06-27T10:24:59.216Z,24.37
2018-06-27T10:25:38.213Z,24.36
2018-06-27T10:26:37.816Z,24.52
2018-06-27T10:27:38.727Z,24.61
2018-06-27T10:28:38.714Z,24.63
2018-06-27T10:29:53.213Z,24.89
2018-06-27T10:32:10.487Z,25.04
2018-06-27T10:33:31.498Z,24.94
2018-06-27T10:34:10.489Z,24.99
2018-06-27T10:35:10.992Z,24.83
2018-06-27T10:37:56.385Z,24.90
2018-06-27T10:41:47.355Z,25.42
2018-06-27T10:42:45.360Z,25.42
2018-06-27T10:43:45.359Z,25.46
2018-06-27T10:44:51.860Z,25.34
2018-06-27T10:45:45.864Z,25.09
2018-06-27T10:46:52.792Z,25.26
2018-06-27T10:47:45.331Z,25.29
2018-06-27T10:50:17.624Z,25.42
2018-06-27T10:51:18.539Z,25.39
2018-06-27T10:52:19.038Z,25.57
2018-06-27T10:53:17.202Z,25.74
2018-06-27T10:54:38.301Z,25.79
2018-06-27T10:55:18.109Z,25.94
2018-06-27T10:56:18.107Z,25.94
2018-06-27T10:57:18.106Z,25.72
2018-06-27T10:58:20.611Z,25.76
2018-06-27T10:59:39.607Z,25.86
2018-06-27T11:04:45.126Z,26.08
2018-06-27T11:05:22.698Z,26.06
2018-06-27T11:06:22.044Z,26.16
2018-06-27T11:07:22.692Z,26.24
2018-06-27T11:08:22.259Z,26.12
2018-06-27T11:10:57.020Z,25.72
2018-06-27T11:12:22.030Z,25.79
2018-06-27T11:12:54.546Z,25.61
2018-06-27T11:15:26.900Z,25.79
2018-06-27T11:16:26.844Z,25.67
2018-06-27T11:17:48.314Z,25.67
2018-06-27T11:18:27.420Z,25.60
2018-06-27T11:19:48.322Z,25.46
2018-06-27T11:21:27.816Z,25.59
2018-06-27T11:22:48.816Z,25.57
2018-06-27T11:23:27.189Z,25.64
2018-06-27T11:24:29.249Z,25.53
2018-06-27T11:26:58.984Z,25.85
2018-06-27T11:29:33.595Z,25.86
2018-06-27T11:30:30.826Z,26.08
2018-06-27T11:31:38.596Z,26.01
2018-06-27T11:32:33.134Z,26.03
2018-06-27T11:33:38.118Z,26.19
2018-06-27T11:37:36.971Z,25.61
2018-06-27T11:40:26.772Z,25.57
2018-06-27T11:41:12.493Z,25.54
2018-06-27T11:43:38.134Z,26.03
2018-06-27T11:47:47.095Z,26.24
2018-06-27T11:50:14.601Z,26.35
2018-06-27T11:52:44.149Z,26.20
2018-06-27T11:53:44.156Z,25.82
2018-06-27T11:55:05.156Z,25.66
2018-06-27T11:55:46.659Z,25.76
2018-06-27T11:59:48.940Z,25.34
2018-06-27T12:01:08.505Z,25.20
2018-06-27T12:01:47.013Z,25.24
2018-06-27T12:03:08.089Z,25.24
2018-06-27T12:04:11.007Z,25.07
2018-06-27T12:04:54.012Z,25.19
2018-06-27T12:05:48.006Z,25.24
2018-06-27T12:06:50.507Z,25.49
2018-06-27T12:07:50.506Z,25.09
2018-06-27T12:10:20.024Z,24.83
2018-06-27T12:11:20.032Z,24.63
2018-06-27T12:12:19.542Z,24.93
2018-06-27T12:13:40.617Z,24.97
2018-06-27T12:14:19.724Z,24.97
2018-06-27T12:15:20.531Z,24.99
2018-06-27T12:16:22.549Z,25.23
2018-06-27T12:17:41.531Z,25.34
2018-06-27T12:18:23.033Z,25.16
2018-06-27T12:19:21.031Z,25.39
2018-06-27T12:20:21.036Z,25.56
2018-06-27T12:21:21.039Z,25.56
2018-06-27T12:22:27.532Z,25.23
2018-06-27T12:23:27.530Z,24.93
2018-06-27T12:24:21.537Z,24.80
2018-06-27T12:25:21.537Z,24.79
2018-06-27T12:28:07.299Z,24.99
2018-06-27T12:28:59.304Z,25.24
2018-06-27T12:29:53.305Z,25.08
2018-06-27T12:30:52.961Z,25.07
2018-06-27T12:31:54.242Z,25.04
2018-06-27T12:32:53.173Z,25.23
2018-06-27T12:33:56.236Z,25.45
2018-06-27T12:34:57.716Z,25.59
2018-06-27T12:39:03.131Z,26.06
2018-06-27T12:39:57.138Z,26.28
2018-06-27T12:40:57.141Z,25.98
2018-06-27T12:41:59.648Z,26.00
2018-06-27T12:44:43.042Z,26.19
2018-06-27T12:45:29.053Z,25.83
2018-06-27T12:46:50.076Z,25.64
2018-06-27T12:47:52.560Z,25.24
2018-06-27T12:48:29.547Z,25.48
2018-06-27T12:49:29.562Z,25.74
2018-06-27T12:52:01.735Z,26.50
2018-06-27T12:53:03.147Z,26.65
2018-06-27T12:57:04.952Z,27.02
2018-06-27T12:58:04.954Z,27.21
2018-06-27T13:03:53.126Z,27.30
2018-06-27T13:04:29.645Z,27.35
2018-06-27T13:07:30.925Z,27.34
2018-06-27T13:08:03.924Z,26.75
2018-06-27T13:09:24.926Z,26.57
2018-06-27T13:10:03.937Z,26.32
2018-06-27T13:11:04.426Z,26.28
2018-06-27T13:12:03.660Z,26.04
2018-06-27T13:13:27.449Z,25.86
2018-06-27T13:14:04.427Z,26.03
2018-06-27T13:15:05.902Z,26.41
2018-06-27T13:16:04.938Z,26.32
2018-06-27T13:17:04.938Z,26.16
2018-06-27T13:18:04.933Z,26.04
2018-06-27T13:19:08.412Z,25.75
2018-06-27T13:20:26.424Z,25.57
2018-06-27T13:21:27.446Z,25.54
2018-06-27T13:22:07.726Z,25.27
2018-06-27T13:23:19.925Z,25.23
2018-06-27T13:24:26.935Z,25.27
2018-06-27T13:25:06.919Z,25.53
2018-06-27T13:26:26.936Z,25.81
2018-06-27T13:27:05.938Z,25.97
2018-06-27T13:28:27.427Z,25.81
2018-06-27T13:29:05.645Z,25.57
2018-06-27T13:30:06.430Z,25.61
2018-06-27T13:31:08.421Z,25.69
2018-06-27T13:32:06.043Z,25.60
2018-06-27T13:34:38.289Z,25.41
2018-06-27T13:35:38.303Z,25.30
2018-06-27T13:36:59.302Z,25.09
2018-06-27T13:38:00.806Z,25.27
2018-06-27T13:38:38.798Z,25.54
2018-06-27T13:39:38.801Z,25.85
2018-06-27T13:40:38.870Z,25.96
2018-06-27T13:41:42.748Z,26.20
2018-06-27T13:42:39.297Z,26.72
2018-06-27T13:43:39.309Z,27.16
2018-06-27T13:44:40.731Z,27.61
2018-06-27T13:45:38.907Z,27.55
2018-06-27T13:46:40.297Z,27.38
2018-06-27T13:47:39.800Z,26.88
2018-06-27T13:48:39.810Z,26.47
2018-06-27T13:53:03.285Z,26.98
2018-06-27T13:53:43.018Z,27.21
2018-06-27T13:54:43.020Z,27.34
2018-06-27T13:59:07.270Z,28.83
2018-06-27T13:59:46.282Z,29.10
2018-06-27T14:00:46.285Z,28.85
2018-06-27T14:01:53.775Z,28.52
2018-06-27T14:03:07.778Z,28.15
2018-06-27T14:05:18.813Z,27.63
2018-06-27T14:06:18.844Z,27.34
2018-06-27T14:07:18.183Z,27.12
2018-06-27T14:08:20.269Z,26.83
2018-06-27T14:10:50.577Z,26.12
2018-06-27T14:11:50.651Z,25.97
2018-06-27T14:12:50.583Z,25.49
2018-06-27T14:14:14.084Z,25.53
2018-06-27T14:14:52.081Z,25.59
2018-06-27T14:15:53.056Z,25.48
2018-06-27T14:16:51.083Z,25.46
2018-06-27T14:18:16.048Z,25.56
2018-06-27T14:20:43.943Z,25.57
2018-06-27T14:21:22.949Z,25.96
2018-06-27T14:22:28.950Z,26.50
2018-06-27T14:23:23.453Z,26.61
2018-06-27T14:25:54.830Z,26.69
2018-06-27T14:27:02.304Z,26.57
2018-06-27T14:27:54.834Z,26.44
2018-06-27T14:28:55.337Z,26.32
2018-06-27T14:31:26.736Z,25.91
2018-06-27T14:32:26.740Z,25.81
2018-06-27T14:33:26.216Z,25.57
2018-06-27T14:34:41.242Z,25.57
2018-06-27T14:36:58.620Z,25.38
2018-06-27T14:38:13.621Z,25.60
2018-06-27T14:38:58.624Z,25.60
2018-06-27T14:40:21.059Z,25.60
2018-06-27T14:41:00.563Z,25.93
2018-06-27T14:42:20.130Z,26.35
2018-06-27T14:42:59.124Z,26.66
2018-06-27T14:43:59.197Z,27.03
2018-06-27T14:44:58.730Z,27.30
2018-06-27T14:46:20.635Z,27.01
2018-06-27T14:47:01.592Z,27.18
2018-06-27T14:47:59.625Z,27.46
2018-06-27T14:49:21.189Z,27.45
2018-06-27T14:51:52.508Z,27.61
2018-06-27T14:52:32.951Z,27.46
2018-06-27T14:53:32.456Z,27.45
2018-06-27T14:54:38.033Z,27.52
2018-06-27T14:58:40.753Z,27.27
2018-06-27T14:59:34.189Z,27.05
2018-06-27T15:00:58.686Z,26.72
2018-06-27T15:01:35.255Z,26.79
2018-06-27T15:02:35.689Z,26.96
2018-06-27T15:03:35.267Z,27.11
2018-06-27T15:04:35.756Z,27.21
2018-06-27T15:05:34.863Z,27.33
2018-06-27T15:06:35.760Z,27.69
2018-06-27T15:07:35.755Z,27.78
2018-06-27T15:08:35.752Z,27.65
2018-06-27T15:09:57.341Z,27.40
2018-06-27T15:10:36.255Z,26.72
2018-06-27T15:11:35.612Z,26.57
2018-06-27T15:12:36.255Z,26.88
2018-06-27T15:15:29.026Z,26.91
2018-06-27T15:16:29.036Z,26.69
2018-06-27T15:17:29.034Z,26.66
2018-06-27T15:18:07.698Z,26.79
2018-06-27T15:19:07.797Z,27.15
2018-06-27T15:20:15.534Z,27.34
2018-06-27T15:21:08.534Z,27.35
2018-06-27T15:22:29.121Z,27.45
2018-06-27T15:23:23.048Z,27.46
2018-06-27T15:24:30.033Z,27.49
2018-06-27T15:25:09.041Z,27.66
2018-06-27T15:26:09.537Z,27.68
2018-06-27T15:27:11.536Z,27.77
2018-06-27T15:28:09.542Z,27.78
2018-06-27T15:29:09.999Z,27.91
2018-06-27T15:30:09.103Z,27.93
2018-06-27T15:34:34.361Z,27.40
2018-06-27T15:35:14.387Z,27.24
2018-06-27T15:36:35.301Z,27.15
2018-06-27T15:38:45.136Z,26.87
2018-06-27T15:39:46.568Z,26.90
2018-06-27T15:40:45.136Z,26.98
2018-06-27T15:43:22.930Z,27.45
2018-06-27T15:44:16.937Z,27.49
2018-06-27T15:45:16.946Z,27.48
2018-06-27T15:46:40.437Z,27.62
2018-06-27T15:47:41.370Z,27.81
2018-06-27T15:48:23.441Z,27.90
2018-06-27T15:49:17.440Z,27.81
2018-06-27T15:50:17.941Z,27.68
2018-06-27T15:51:17.938Z,27.80
2018-06-27T15:52:17.980Z,27.59
2018-06-27T15:53:17.479Z,27.48
2018-06-27T15:54:18.437Z,27.62
2018-06-27T15:55:39.438Z,27.45
2018-06-27T15:56:18.448Z,27.69
2018-06-27T15:57:18.438Z,27.53
2018-06-27T15:59:50.227Z,27.34
2018-06-27T16:00:50.228Z,27.20